createdAt,value
2019-02-11T00:01:21.945Z,99.90
2019-02-11T00:03:59.286Z,99.90
2019-02-11T00:06:24.307Z,99.90
2019-02-11T00:08:54.414Z,99.90
2019-02-11T00:11:24.002Z,99.90
2019-02-11T00:13:54.019Z,99.90
2019-02-11T00:16:23.822Z,99.90
2019-02-11T00:18:55.323Z,99.90
2019-02-11T00:21:26.584Z,99.90
2019-02-11T00:23:56.264Z,99.90
2019-02-11T00:26:27.091Z,99.90
2019-02-11T00:28:56.703Z,99.90
2019-02-11T00:31:26.570Z,99.90
2019-02-11T00:33:56.475Z,99.90
2019-02-11T00:36:27.081Z,99.90
2019-02-11T00:38:56.784Z,99.90
2019-02-11T00:41:26.478Z,99.90
2019-02-11T00:43:57.143Z,99.90
2019-02-11T00:46:26.921Z,99.90
2019-02-11T00:48:56.634Z,99.90
2019-02-11T00:51:26.406Z,99.90
2019-02-11T00:53:56.169Z,99.90
2019-02-11T00:56:25.975Z,99.90
2019-02-11T00:58:55.643Z,99.90
2019-02-11T01:01:25.273Z,99.90
2019-02-11T01:03:55.217Z,99.90
2019-02-11T01:06:24.889Z,99.90
2019-02-11T01:08:56.354Z,99.90
2019-02-11T01:11:27.687Z,99.90
2019-02-11T01:13:57.928Z,99.90
2019-02-11T01:16:27.934Z,99.90
2019-02-11T01:18:57.979Z,99.90
2019-02-11T01:21:28.827Z,99.90
2019-02-11T01:23:59.026Z,99.90
2019-02-11T01:26:28.574Z,99.90
2019-02-11T01:28:58.554Z,99.90
2019-02-11T01:31:29.675Z,99.90
2019-02-11T01:33:59.588Z,99.90
2019-02-11T01:36:29.295Z,99.90
2019-02-11T01:38:59.054Z,99.90
2019-02-11T01:41:30.419Z,99.90
2019-02-11T01:44:00.139Z,99.90
2019-02-11T01:46:30.848Z,99.90
2019-02-11T01:49:03.251Z,99.90
2019-02-11T01:51:33.064Z,99.90
2019-02-11T01:54:02.743Z,99.90
2019-02-11T01:56:32.386Z,99.90
2019-02-11T01:59:02.022Z,99.90
2019-02-11T02:01:33.439Z,99.90
2019-02-11T02:04:03.056Z,99.90
2019-02-11T02:06:32.668Z,99.90
2019-02-11T02:09:02.475Z,99.90
2019-02-11T02:11:33.955Z,99.90
2019-02-11T02:14:03.679Z,99.90
2019-02-11T02:16:34.499Z,99.90
2019-02-11T02:19:04.170Z,99.90
2019-02-11T02:21:34.132Z,99.90
2019-02-11T02:24:04.031Z,99.90
2019-02-11T02:26:33.744Z,99.90
2019-02-11T02:29:05.146Z,99.90
2019-02-11T02:31:34.915Z,99.90
2019-02-11T02:34:05.619Z,99.90
2019-02-11T02:36:37.243Z,99.90
2019-02-11T02:39:07.454Z,99.90
2019-02-11T02:41:37.081Z,99.90
2019-02-11T02:44:11.407Z,99.90
2019-02-11T02:46:41.158Z,99.90
2019-02-11T02:49:10.724Z,99.90
2019-02-11T02:51:40.576Z,99.90
2019-02-11T02:54:12.792Z,99.90
2019-02-11T02:56:42.507Z,99.90
2019-02-11T02:59:12.220Z,99.90
2019-02-11T03:01:42.556Z,99.90
2019-02-11T03:04:12.690Z,99.90
2019-02-11T03:06:44.480Z,99.90
2019-02-11T03:09:14.046Z,99.90
2019-02-11T03:11:43.900Z,99.90
2019-02-11T03:14:13.479Z,99.90
2019-02-11T03:16:44.286Z,99.90
2019-02-11T03:19:14.183Z,99.90
2019-02-11T03:21:45.532Z,99.90
2019-02-11T03:24:15.243Z,99.90
2019-02-11T03:26:45.059Z,99.90
2019-02-11T03:29:14.983Z,99.90
2019-02-11T03:31:46.912Z,99.90
2019-02-11T03:34:16.938Z,99.90
2019-02-11T03:36:46.640Z,99.90
2019-02-11T03:39:16.453Z,99.90
2019-02-11T03:41:46.052Z,99.90
2019-02-11T03:44:15.798Z,99.90
2019-02-11T03:46:47.035Z,99.90
2019-02-11T03:49:17.925Z,99.90
2019-02-11T03:51:47.791Z,99.90
2019-02-11T03:54:17.585Z,99.90
2019-02-11T03:56:48.911Z,99.90
2019-02-11T03:59:19.883Z,99.90
2019-02-11T04:01:53.143Z,99.90
2019-02-11T04:04:23.039Z,99.90
2019-02-11T04:06:54.855Z,99.90
2019-02-11T04:09:25.623Z,99.90
2019-02-11T04:11:55.301Z,99.90
2019-02-11T04:14:26.037Z,99.90
2019-02-11T04:16:55.815Z,99.90
2019-02-11T04:19:25.448Z,99.90
2019-02-11T04:22:20.358Z,99.90
2019-02-11T04:24:52.684Z,99.90
2019-02-11T04:27:23.716Z,99.90
2019-02-11T04:29:53.448Z,99.90
2019-02-11T04:32:24.865Z,99.90
2019-02-11T04:34:54.650Z,99.90
2019-02-11T04:37:24.450Z,99.90
2019-02-11T04:39:54.284Z,99.90
2019-02-11T04:42:24.549Z,99.90
2019-02-11T04:44:54.172Z,99.90
2019-02-11T04:47:23.984Z,99.90
2019-02-11T04:49:55.668Z,99.90
2019-02-11T04:52:28.793Z,99.90
2019-02-11T04:55:01.303Z,99.90
2019-02-11T04:57:31.880Z,99.90
2019-02-11T05:00:02.682Z,99.90
2019-02-11T05:02:35.455Z,99.90
2019-02-11T05:05:05.882Z,99.90
2019-02-11T05:07:37.400Z,99.90
2019-02-11T05:10:09.079Z,99.90
2019-02-11T05:12:38.635Z,99.90
2019-02-11T05:15:10.440Z,99.90
2019-02-11T05:17:40.212Z,99.90
2019-02-11T05:20:12.180Z,99.90
2019-02-11T05:22:43.812Z,99.90
2019-02-11T05:25:15.877Z,99.90
2019-02-11T05:27:46.188Z,99.90
2019-02-11T05:30:16.123Z,99.90
2019-02-11T05:32:47.218Z,99.90
2019-02-11T05:35:16.954Z,99.90
2019-02-11T05:37:48.308Z,99.30
2019-02-11T05:40:18.177Z,99.80
2019-02-11T05:45:17.582Z,98.90
2019-02-11T05:47:47.568Z,99.50
2019-02-11T05:50:18.238Z,99.90
2019-02-11T05:52:49.430Z,99.90
2019-02-11T05:55:19.201Z,99.90
2019-02-11T05:57:50.379Z,99.90
2019-02-11T06:00:21.381Z,99.90
2019-02-11T06:02:54.571Z,99.90
2019-02-11T06:05:24.132Z,99.90
2019-02-11T06:07:55.722Z,99.90
2019-02-11T06:10:26.442Z,99.90
2019-02-11T06:12:57.900Z,99.90
2019-02-11T06:15:27.726Z,99.90
2019-02-11T06:17:59.136Z,99.90
2019-02-11T06:20:29.852Z,99.90
2019-02-11T06:22:59.541Z,99.90
2019-02-11T06:25:29.268Z,99.90
2019-02-11T06:28:00.709Z,99.90
2019-02-11T06:30:30.371Z,99.90
2019-02-11T06:33:01.150Z,99.90
2019-02-11T06:35:30.828Z,99.90
2019-02-11T06:38:00.576Z,99.90
2019-02-11T06:40:31.476Z,99.90
2019-02-11T06:43:03.216Z,99.90
2019-02-11T06:45:32.816Z,99.90
2019-02-11T06:48:02.571Z,99.90
2019-02-11T06:50:33.475Z,99.90
2019-02-11T06:53:03.143Z,99.90
2019-02-11T06:58:04.607Z,99.90
2019-02-11T07:00:34.266Z,99.90
2019-02-11T07:03:05.667Z,99.90
2019-02-11T07:05:35.284Z,99.90
2019-02-11T07:08:05.079Z,99.90
2019-02-11T07:10:37.686Z,99.90
2019-02-11T07:13:07.486Z,99.90
2019-02-11T07:15:39.711Z,99.90
2019-02-11T07:18:09.452Z,99.90
2019-02-11T07:20:39.207Z,99.90
2019-02-11T07:23:10.774Z,99.90
2019-02-11T07:25:40.635Z,99.90
2019-02-11T07:28:10.312Z,99.90
2019-02-11T07:30:41.450Z,99.90
2019-02-11T07:33:11.202Z,99.90
2019-02-11T07:35:42.176Z,99.90
2019-02-11T07:38:11.760Z,99.90
2019-02-11T07:40:43.505Z,99.90
2019-02-11T07:43:32.614Z,99.90
2019-02-11T07:46:10.171Z,99.90
2019-02-11T07:48:41.736Z,99.90
2019-02-11T07:51:14.956Z,99.90
2019-02-11T07:53:45.092Z,99.90
2019-02-11T07:56:15.830Z,99.90
2019-02-11T07:58:45.543Z,99.90
2019-02-11T08:01:15.498Z,99.90
2019-02-11T08:03:45.511Z,99.90
2019-02-11T08:06:15.249Z,99.90
2019-02-11T08:08:44.851Z,99.90
2019-02-11T08:11:16.787Z,99.90
2019-02-11T08:13:48.173Z,99.90
2019-02-11T08:16:19.531Z,99.90
2019-02-11T08:18:49.335Z,99.90
2019-02-11T08:21:20.083Z,99.90
2019-02-11T08:23:50.040Z,99.90
2019-02-11T08:26:21.532Z,99.90
2019-02-11T08:28:51.160Z,99.90
2019-02-11T08:31:21.831Z,99.90
2019-02-11T08:33:51.703Z,99.90
2019-02-11T08:36:21.557Z,99.90
2019-02-11T08:38:51.617Z,99.90
2019-02-11T08:41:21.251Z,99.90
2019-02-11T08:43:52.855Z,99.90
2019-02-11T08:46:22.755Z,99.90
2019-02-11T08:48:52.428Z,99.90
2019-02-11T08:51:22.160Z,99.90
2019-02-11T08:53:52.335Z,99.90
2019-02-11T08:56:21.920Z,99.90
2019-02-11T08:58:53.813Z,99.90
2019-02-11T09:01:25.474Z,99.90
2019-02-11T09:03:55.197Z,99.90
2019-02-11T09:06:24.774Z,99.90
2019-02-11T09:08:56.108Z,99.90
2019-02-11T09:11:25.990Z,99.90
2019-02-11T09:13:55.574Z,99.90
2019-02-11T09:16:26.287Z,99.90
2019-02-11T09:18:56.215Z,99.90
2019-02-11T09:21:27.188Z,99.90
2019-02-11T09:23:57.112Z,99.90
2019-02-11T09:26:27.014Z,99.90
2019-02-11T09:28:56.747Z,99.90
2019-02-11T09:31:26.720Z,99.90
2019-02-11T09:33:57.330Z,99.90
2019-02-11T09:36:27.016Z,99.90
2019-02-11T09:38:57.362Z,99.90
2019-02-11T09:41:27.203Z,99.90
2019-02-11T09:43:57.934Z,99.90
2019-02-11T09:46:29.364Z,99.90
2019-02-11T09:48:59.165Z,99.90
2019-02-11T09:51:29.216Z,99.90
2019-02-11T09:53:59.863Z,99.90
2019-02-11T09:56:31.906Z,99.90
2019-02-11T09:59:02.716Z,99.90
2019-02-11T10:01:32.462Z,99.90
2019-02-11T10:04:03.891Z,99.90
2019-02-11T10:06:35.323Z,99.90
2019-02-11T10:09:06.454Z,99.90
2019-02-11T10:11:37.134Z,99.90
2019-02-11T10:14:08.579Z,99.90
2019-02-11T10:16:38.658Z,99.90
2019-02-11T10:19:08.713Z,99.90
2019-02-11T10:21:38.678Z,99.90
2019-02-11T10:24:09.943Z,99.90
2019-02-11T10:26:40.031Z,99.90
2019-02-11T10:29:10.263Z,99.90
2019-02-11T10:31:40.046Z,99.90
2019-02-11T10:34:09.795Z,99.90
2019-02-11T10:36:39.610Z,99.90
2019-02-11T10:39:09.435Z,99.90
2019-02-11T10:41:39.802Z,99.90
2019-02-11T10:44:09.559Z,99.90
2019-02-11T10:46:39.175Z,99.90
2019-02-11T10:49:08.871Z,99.90
2019-02-11T10:51:38.575Z,99.90
2019-02-11T10:54:08.309Z,99.90
2019-02-11T10:56:38.011Z,99.90
2019-02-11T10:59:07.692Z,99.90
2019-02-11T11:01:37.528Z,99.90
2019-02-11T11:04:07.163Z,99.90
2019-02-11T11:06:36.811Z,99.90
2019-02-11T11:09:10.794Z,99.90
2019-02-11T11:11:40.532Z,99.90
2019-02-11T11:14:10.183Z,99.90
2019-02-11T11:16:42.100Z,99.90
2019-02-11T11:19:14.197Z,99.90
2019-02-11T11:21:44.888Z,99.90
2019-02-11T11:24:14.635Z,99.90
2019-02-11T11:26:44.360Z,99.90
2019-02-11T11:29:15.116Z,99.90
2019-02-11T11:31:46.332Z,99.90
2019-02-11T11:34:16.063Z,99.90
2019-02-11T11:36:46.197Z,99.90
2019-02-11T11:39:22.910Z,99.90
2019-02-11T11:41:52.595Z,99.90
2019-02-11T11:44:22.380Z,99.90
2019-02-11T11:46:51.984Z,99.90
2019-02-11T11:49:22.219Z,99.90
2019-02-11T11:51:52.602Z,99.90
2019-02-11T11:54:24.454Z,99.90
2019-02-11T11:56:54.215Z,99.90
2019-02-11T11:59:23.947Z,99.90
2019-02-11T12:01:56.121Z,99.90
2019-02-11T12:04:25.888Z,99.90
2019-02-11T12:06:55.675Z,99.90
2019-02-11T12:09:25.573Z,99.90
2019-02-11T12:11:55.370Z,99.90
2019-02-11T12:14:26.827Z,99.90
2019-02-11T12:17:02.395Z,99.90
2019-02-11T12:19:29.393Z,99.90
2019-02-11T12:21:59.091Z,99.90
2019-02-11T12:24:28.780Z,99.90
2019-02-11T12:26:58.486Z,99.90
2019-02-11T12:29:28.902Z,99.90
2019-02-11T12:31:59.030Z,99.90
2019-02-11T12:34:28.605Z,99.90
2019-02-11T12:36:58.276Z,99.90
2019-02-11T12:39:29.856Z,99.90
2019-02-11T12:41:59.541Z,99.90
2019-02-11T12:44:30.678Z,99.90
2019-02-11T12:47:13.294Z,99.90
2019-02-11T12:49:32.635Z,99.90
2019-02-11T12:52:03.847Z,99.90
2019-02-11T12:54:33.609Z,99.90
2019-02-11T12:57:03.570Z,99.90
2019-02-11T12:59:35.693Z,99.90
2019-02-11T13:02:05.408Z,99.90
2019-02-11T13:04:36.798Z,99.90
2019-02-11T13:07:06.973Z,99.90
2019-02-11T13:09:36.649Z,99.90
2019-02-11T13:12:06.314Z,99.90
2019-02-11T13:14:38.202Z,99.90
2019-02-11T13:17:15.681Z,99.90
2019-02-11T13:19:41.520Z,99.90
2019-02-11T13:22:14.085Z,99.90
2019-02-11T13:24:43.647Z,99.90
2019-02-11T13:27:13.444Z,99.90
2019-02-11T13:29:44.960Z,99.90
2019-02-11T13:32:14.625Z,99.90
2019-02-11T13:34:45.719Z,99.90
2019-02-11T13:37:15.412Z,99.90
2019-02-11T13:39:45.778Z,99.90
2019-02-11T13:42:16.029Z,99.90
2019-02-11T13:44:45.644Z,99.90
2019-02-11T13:47:15.539Z,99.90
2019-02-11T13:49:47.147Z,99.90
2019-02-11T13:52:16.917Z,99.90
2019-02-11T13:54:46.680Z,99.90
2019-02-11T13:57:16.429Z,99.90
2019-02-11T13:59:46.080Z,99.90
2019-02-11T14:07:18.659Z,99.90
2019-02-11T14:09:51.335Z,99.90
2019-02-11T14:12:21.165Z,99.90
2019-02-11T14:14:52.305Z,99.90
2019-02-11T14:17:22.493Z,98.70
2019-02-11T14:19:53.926Z,99.90
2019-02-11T14:22:23.732Z,99.90
2019-02-11T14:24:53.482Z,99.90
2019-02-11T14:27:24.284Z,99.90
2019-02-11T14:29:55.815Z,99.90
2019-02-11T14:32:25.362Z,99.90
2019-02-11T14:34:55.299Z,99.90
2019-02-11T14:37:25.033Z,99.90
2019-02-11T14:39:56.573Z,99.90
2019-02-11T14:42:26.302Z,99.90
2019-02-11T14:44:55.921Z,99.90
2019-02-11T14:47:25.543Z,99.90
2019-02-11T14:49:56.359Z,99.90
2019-02-11T14:52:26.621Z,99.90
2019-02-11T14:54:56.419Z,99.90
2019-02-11T14:59:56.030Z,99.90
2019-02-11T15:02:26.219Z,99.90
2019-02-11T15:04:57.123Z,99.90
2019-02-11T15:07:26.658Z,99.90
2019-02-11T15:09:57.048Z,99.20
2019-02-11T15:12:26.807Z,97.40
2019-02-11T15:14:56.454Z,98.10
2019-02-11T15:17:26.271Z,96.30
2019-02-11T15:19:55.982Z,94.70
2019-02-11T15:22:25.643Z,96.90
2019-02-11T15:24:55.289Z,98.30
2019-02-11T15:27:25.070Z,95.10
2019-02-11T15:29:55.870Z,95.80
2019-02-11T15:32:26.487Z,99.90
2019-02-11T15:34:57.195Z,99.90
2019-02-11T15:37:27.415Z,94.30
2019-02-11T15:39:57.020Z,94.00
2019-02-11T15:42:28.143Z,92.20
2019-02-11T15:44:58.308Z,92.30
2019-02-11T15:47:28.987Z,93.40
2019-02-11T15:49:58.597Z,98.30
2019-02-11T15:52:31.450Z,92.90
2019-02-11T15:55:02.911Z,95.50
2019-02-11T15:57:32.571Z,99.10
2019-02-11T16:00:02.336Z,99.90
2019-02-11T16:02:32.591Z,98.40
2019-02-11T16:05:02.862Z,94.90
2019-02-11T16:07:32.734Z,98.30
2019-02-11T16:10:03.472Z,96.80
2019-02-11T16:12:35.664Z,99.20
2019-02-11T16:15:08.124Z,93.40
2019-02-11T16:17:38.471Z,95.70
2019-02-11T16:20:09.071Z,94.30
2019-02-11T16:22:39.011Z,93.50
2019-02-11T16:25:10.169Z,93.70
2019-02-11T16:27:39.764Z,96.90
2019-02-11T16:30:13.660Z,97.00
2019-02-11T16:32:43.367Z,93.60
2019-02-11T16:35:13.923Z,99.30
2019-02-11T16:37:43.675Z,95.60
2019-02-11T16:40:15.908Z,99.90
2019-02-11T16:42:46.973Z,93.80
2019-02-11T16:45:16.683Z,99.90
2019-02-11T16:47:46.397Z,92.90
2019-02-11T16:50:16.102Z,96.30
2019-02-11T16:52:45.911Z,99.90
2019-02-11T16:55:15.605Z,99.80
2019-02-11T16:57:45.544Z,94.50
2019-02-11T17:00:18.129Z,99.00
2019-02-11T17:02:47.870Z,95.90
2019-02-11T17:05:17.659Z,95.70
2019-02-11T17:07:47.883Z,99.90
2019-02-11T17:10:19.048Z,96.30
2019-02-11T17:12:50.463Z,94.90
2019-02-11T17:15:20.129Z,94.60
2019-02-11T17:17:50.551Z,95.70
2019-02-11T17:20:20.283Z,98.00
2019-02-11T17:22:51.423Z,98.30
2019-02-11T17:25:20.928Z,99.90
2019-02-11T17:27:53.432Z,98.50
2019-02-11T17:30:25.147Z,99.90
2019-02-11T17:32:55.651Z,98.20
2019-02-11T17:35:26.421Z,98.90
2019-02-11T17:37:56.163Z,95.80
2019-02-11T17:40:26.828Z,96.90
2019-02-11T17:42:56.659Z,96.90
2019-02-11T17:45:27.738Z,98.80
2019-02-11T17:47:57.307Z,97.90
2019-02-11T17:50:27.072Z,99.60
2019-02-11T17:52:57.665Z,99.60
2019-02-11T17:55:27.563Z,94.70
2019-02-11T17:57:58.339Z,99.10
2019-02-11T18:00:37.535Z,96.40
2019-02-11T18:03:08.567Z,98.10
2019-02-11T18:05:38.363Z,96.60
2019-02-11T18:08:09.087Z,98.00
2019-02-11T18:10:42.306Z,95.10
2019-02-11T18:13:13.843Z,99.50
2019-02-11T18:15:43.686Z,97.20
2019-02-11T18:23:12.024Z,98.10
2019-02-11T18:25:42.937Z,96.60
2019-02-11T18:28:13.143Z,96.60
2019-02-11T18:30:42.779Z,97.30
2019-02-11T18:33:12.489Z,96.30
2019-02-11T18:35:42.175Z,96.80
2019-02-11T18:38:13.692Z,96.40
2019-02-11T18:40:45.866Z,96.30
2019-02-11T18:43:15.767Z,96.10
2019-02-11T18:45:45.454Z,93.90
2019-02-11T18:48:15.139Z,96.40
2019-02-11T18:50:46.635Z,96.00
2019-02-11T18:53:16.341Z,95.90
2019-02-11T18:55:46.608Z,95.90
2019-02-11T18:58:16.327Z,95.80
2019-02-11T19:00:46.678Z,95.70
2019-02-11T19:03:17.123Z,95.70
2019-02-11T19:05:47.959Z,95.70
2019-02-11T19:08:17.987Z,95.70
2019-02-11T19:10:47.981Z,95.80
2019-02-11T19:13:17.615Z,95.70
2019-02-11T19:15:47.607Z,95.80
2019-02-11T19:18:18.367Z,95.80
2019-02-11T19:20:48.163Z,95.70
2019-02-11T19:23:18.040Z,95.60
2019-02-11T19:25:48.470Z,95.80
2019-02-11T19:28:18.192Z,95.60
2019-02-11T19:30:49.803Z,95.50
2019-02-11T19:33:19.488Z,96.00
2019-02-11T19:35:50.216Z,95.80
2019-02-11T19:38:19.782Z,95.40
2019-02-11T19:40:50.400Z,95.40
2019-02-11T19:43:20.339Z,95.40
2019-02-11T19:45:50.071Z,95.50
2019-02-11T19:48:20.363Z,95.40
2019-02-11T19:50:50.284Z,95.30
2019-02-11T19:53:20.341Z,95.20
2019-02-11T19:55:51.982Z,95.20
2019-02-11T19:58:22.099Z,96.10
2019-02-11T20:00:52.080Z,95.70
2019-02-11T20:03:22.859Z,95.40
2019-02-11T20:05:52.831Z,95.30
2019-02-11T20:08:22.789Z,95.10
2019-02-11T20:10:53.112Z,96.40
2019-02-11T20:13:23.629Z,98.00
2019-02-11T20:15:54.687Z,97.70
2019-02-11T20:18:24.351Z,94.90
2019-02-11T20:20:55.931Z,98.20
2019-02-11T20:23:25.702Z,96.90
2019-02-11T20:25:55.492Z,96.60
2019-02-11T20:28:26.833Z,93.70
2019-02-11T20:30:56.903Z,97.90
2019-02-11T20:33:26.805Z,94.90
2019-02-11T20:35:56.527Z,97.70
2019-02-11T20:38:27.397Z,98.60
2019-02-11T20:40:59.381Z,98.80
2019-02-11T20:43:29.383Z,99.60
2019-02-11T20:46:00.111Z,99.90
2019-02-11T20:48:30.543Z,98.80
2019-02-11T20:51:01.931Z,97.80
2019-02-11T20:53:31.607Z,97.20
2019-02-11T20:56:02.321Z,97.50
2019-02-11T20:58:32.034Z,96.00
2019-02-11T21:01:03.016Z,96.80
2019-02-11T21:03:33.867Z,96.30
2019-02-11T21:06:03.538Z,95.80
2019-02-11T21:08:36.749Z,95.40
2019-02-11T21:11:06.618Z,95.40
2019-02-11T21:13:36.727Z,95.20
2019-02-11T21:16:08.095Z,95.10
2019-02-11T21:18:39.624Z,95.00
2019-02-11T21:21:09.293Z,95.00
2019-02-11T21:23:39.268Z,94.90
2019-02-11T21:26:10.155Z,95.60
2019-02-11T21:28:40.768Z,95.30
2019-02-11T21:31:11.948Z,95.00
2019-02-11T21:33:45.875Z,94.80
2019-02-11T21:36:17.014Z,94.70
2019-02-11T21:38:47.039Z,94.60
2019-02-11T21:41:16.682Z,94.90
2019-02-11T21:43:46.899Z,95.10
2019-02-11T21:46:16.867Z,94.90
2019-02-11T21:48:47.844Z,94.70
2019-02-11T21:51:17.927Z,94.50
2019-02-11T21:53:49.963Z,94.50
2019-02-11T21:56:21.214Z,94.40
2019-02-11T21:58:51.835Z,94.40
2019-02-11T22:01:22.095Z,94.50
2019-02-11T22:03:53.163Z,94.70
2019-02-11T22:06:22.804Z,94.90
2019-02-11T22:08:52.742Z,95.50
2019-02-11T22:11:22.655Z,95.50
2019-02-11T22:13:54.619Z,96.20
2019-02-11T22:16:26.148Z,98.00
2019-02-11T22:18:55.984Z,97.30
2019-02-11T22:21:25.659Z,95.90
2019-02-11T22:23:55.963Z,95.00
2019-02-11T22:26:25.651Z,94.60
2019-02-11T22:28:55.284Z,94.60
2019-02-11T22:31:27.881Z,95.30
2019-02-11T22:33:57.840Z,94.90
2019-02-11T22:36:27.717Z,94.20
2019-02-11T22:38:59.080Z,94.60
2019-02-11T22:41:29.826Z,95.90
2019-02-11T22:44:01.428Z,95.30
2019-02-11T22:46:31.058Z,94.90
2019-02-11T22:49:02.603Z,94.90
2019-02-11T22:51:32.831Z,95.10
2019-02-11T22:54:02.884Z,95.00
2019-02-11T22:56:32.995Z,94.90
2019-02-11T22:59:03.023Z,94.80
2019-02-11T23:01:33.911Z,94.80
2019-02-11T23:04:03.795Z,94.70
2019-02-11T23:06:33.563Z,94.60
2019-02-11T23:09:04.763Z,94.70
2019-02-11T23:11:35.416Z,94.60
2019-02-11T23:14:05.012Z,93.60
2019-02-11T23:16:35.873Z,95.40
2019-02-11T23:19:07.965Z,96.40
2019-02-11T23:21:39.514Z,95.50
2019-02-11T23:24:10.883Z,95.00
2019-02-11T23:26:42.272Z,94.50
2019-02-11T23:29:12.088Z,94.90
2019-02-11T23:31:42.207Z,95.00
2019-02-11T23:34:12.023Z,95.00
2019-02-11T23:36:42.838Z,95.00
2019-02-11T23:39:17.197Z,95.00
2019-02-11T23:41:47.864Z,96.30
2019-02-11T23:44:18.423Z,94.40
2019-02-11T23:46:50.675Z,95.70
2019-02-11T23:49:20.286Z,95.20
2019-02-11T23:51:50.020Z,95.20
2019-02-11T23:54:20.104Z,95.50
2019-02-11T23:56:50.875Z,95.10
2019-02-11T23:59:22.366Z,92.40
